BHM weather

Birmingham-Shuttlesworth International Airport
Birmingham, Alabama, United States

Public forecast

Using degrees Fahrenheit for public forecast. Weather courtesy of forecast.io.

METAR (pilot weather report)

Retrieved 2018/07/15 21:53 UTC (37 minutes ago):

KBHM 152153Z 05007KT 10SM TS SCT040CB 33/23 A3001 RMK AO2 LTG DSNT ALQDS TSE49B51 SLP154 OCNL LTGIC N TS N MOV S T03330228

TAF (pilot weather forecast)

Retrieved 2018/07/15 18:28 UTC (4 hours ago):

TAF KBHM 151725Z 1518/1618 30005KT P6SM SCT018 BKN250 FM151900 29005KT P6SM VCTS BKN050CB FM160200 19003KT P6SM OVC200